Kaami — C6VO9 — position and weather

sailwx.info

Track history (hours):
 
Tides and Currents Weather Stations Pressure Air Temp Water Temp Dewpoint Dewpoint Depression Visibility Wind Speed Wind Dir Waves Ship Positions

Kaami

Last reported at 2014-Nov-25 20:28 UTC. Time now 2014-Nov-25 20:45 UTC.
Position N 51°10' E 003°47'.

Length 90 m; draft 5.7 m.

Type: Cargo ship. MMSI: 308542000.

Date/timePositionNaut miles runAvg speedWind from/ knotsBaromVisibWave heightAir tempDewpointWater temp
2014-Nov-25 20:28N 51°10' E 003°47'0 0.0
2014-Nov-25 19:31N 51°10' E 003°47'0 0.0
2014-Nov-25 18:28N 51°10' E 003°47'0 0.0
2014-Nov-25 17:31N 51°10' E 003°47'0 0.0
2014-Nov-25 16:31N 51°10' E 003°47'0 0.0
2014-Nov-25 15:28N 51°10' E 003°47'2 1.8
2014-Nov-25 14:33N 51°11' E 003°48'7 6.5
2014-Nov-25 13:34N 51°18' E 003°50'3 2.6
2014-Nov-25 12:34N 51°20' E 003°49'4 3.9
2014-Nov-25 11:33N 51°22' E 003°44'6 6.1
2014-Nov-25 10:33N 51°25' E 003°35'8 7.9
2014-Nov-25 09:33N 51°24' E 003°23'8 8.0
2014-Nov-25 08:33N 51°24' E 003°10'8 7.7
2014-Nov-25 07:33N 51°23' E 002°57'8 8.1
2014-Nov-25 06:30N 51°22' E 002°44'5 5.5
2014-Nov-25 05:33N 51°22' E 002°36'9 8.6
2014-Nov-25 04:32N 51°19' E 002°22'17 8.8
2014-Nov-25 02:33N 51°11' E 001°58'9 8.7
2014-Nov-25 01:34N 51°06' E 001°47'9 8.9
2014-Nov-25 00:31N 50°59' E 001°37'286 5.7
2014-Nov-22 22:33N 52°05' W 005°51'9 9.0
2014-Nov-22 21:33N 52°14' W 005°47'9 8.4
2014-Nov-22 20:32N 52°22' W 005°46'78 8.6
2014-Nov-22 11:32N 53°39' W 006°04'9 8.9
2014-Nov-22 10:33N 53°44' W 006°16'2 0.1
2014-Nov-21 09:28N 53°43' W 006°19'5 5.6
2014-Nov-21 08:33N 53°43' W 006°10'5 4.6
2014-Nov-21 07:33N 53°43' W 006°02'9610.7
2014-Nov-20 22:32N 53°32' W 003°21'9 9.7
2014-Nov-20 21:33N 53°30' W 003°05'3 3.4
2014-Nov-20 20:33N 53°27' W 003°01'0 0.2
2014-Nov-20 19:33N 53°28' W 003°01'0 0.0
2014-Nov-20 18:33N 53°28' W 003°01'0 0.0
2014-Nov-20 17:21N 53°28' W 003°01'0 0.0
2014-Nov-20 16:33N 53°28' W 003°01'0 0.0
2014-Nov-20 15:33N 53°28' W 003°01'0 0.0
2014-Nov-20 14:33N 53°28' W 003°01'0 0.0
2014-Nov-20 13:33N 53°28' W 003°01'0 0.0
2014-Nov-20 12:27N 53°28' W 003°01'0 0.0
2014-Nov-20 11:33N 53°28' W 003°01'0 0.0
2014-Nov-20 10:33N 53°28' W 003°01'0 0.0
2014-Nov-20 09:33N 53°28' W 003°01'0 0.0
2014-Nov-20 08:33N 53°28' W 003°01'0 0.0
2014-Nov-20 06:33N 53°28' W 003°01'0 0.0
2014-Nov-20 05:32N 53°28' W 003°01'0 0.0
2014-Nov-20 04:32N 53°28' W 003°01'0 0.0
2014-Nov-20 02:32N 53°28' W 003°01'0 0.0
2014-Nov-20 01:08N 53°28' W 003°01'0 0.0
2014-Nov-20 00:26N 53°28' W 003°01'0 0.0
2014-Nov-19 23:26N 53°28' W 003°01'0 0.0
2014-Nov-19 22:26N 53°28' W 003°01'0 0.0
2014-Nov-19 21:32N 53°28' W 003°01'0 0.0
2014-Nov-19 20:20N 53°28' W 003°01'0 0.0
2014-Nov-19 19:32N 53°28' W 003°01'0 0.0
2014-Nov-19 18:26N 53°28' W 003°01'0 0.0
2014-Nov-19 16:32N 53°28' W 003°01'0 0.0
2014-Nov-19 15:32N 53°28' W 003°01'0 0.0
2014-Nov-19 13:32N 53°28' W 003°01'0 0.0
2014-Nov-19 12:24N 53°28' W 003°01'1 0.6
2014-Nov-19 11:33N 53°27' W 003°01'1 1.0
2014-Nov-19 10:33N 53°28' W 003°02'8 7.6
2014-Nov-19 09:33N 53°31' W 003°14'6 0.9
2014-Nov-19 03:26N 53°29' W 003°22'0 0.0
2014-Nov-19 02:32N 53°28' W 003°22'0 0.0
2014-Nov-19 01:26N 53°29' W 003°22'0 0.0
2014-Nov-19 00:32N 53°29' W 003°22'0 0.0
2014-Nov-18 23:32N 53°29' W 003°22'0 0.0
2014-Nov-18 22:32N 53°29' W 003°22'0 0.0
2014-Nov-18 21:26N 53°29' W 003°22'0 0.0
2014-Nov-18 20:32N 53°28' W 003°22'0 0.1
2014-Nov-18 19:08N 53°28' W 003°22'0 0.0
2014-Nov-18 18:26N 53°28' W 003°22'0 0.0
2014-Nov-18 16:20N 53°28' W 003°22'0 0.1
2014-Nov-18 15:20N 53°28' W 003°22'0 0.0
2014-Nov-18 14:32N 53°28' W 003°22'0 0.0
2014-Nov-18 13:31N 53°29' W 003°22'0 0.0
2014-Nov-18 12:19N 53°29' W 003°22'0 0.0
2014-Nov-18 11:31N 53°29' W 003°22'0 0.0
2014-Nov-18 10:31N 53°29' W 003°22'0 0.0
2014-Nov-18 09:31N 53°28' W 003°22'0 0.0
2014-Nov-18 08:31N 53°28' W 003°22'0 0.0
2014-Nov-18 07:31N 53°28' W 003°22'4 3.5
2014-Nov-18 06:24N 53°30' W 003°28'75 6.9
2014-Nov-17 19:29N 54°19' W 005°06'7 7.8
2014-Nov-17 18:33N 54°25' W 005°11'7 7.3
2014-Nov-17 17:33N 54°32' W 005°16'8 7.9
2014-Nov-17 16:33N 54°39' W 005°21'8 8.2
2014-Nov-17 15:33N 54°47' W 005°27'8 8.1
2014-Nov-17 14:34N 54°53' W 005°35'9 8.4
2014-Nov-17 13:29N 55°01' W 005°44'17 8.5
2014-Nov-17 11:32N 55°15' W 006°00'8 7.9
2014-Nov-17 10:32N 55°21' W 006°09'8 8.4
2014-Nov-17 09:32N 55°26' W 006°20'9 9.1
2014-Nov-17 08:33N 55°34' W 006°28'9 8.3
2014-Nov-17 07:32N 55°41' W 006°37'8 8.5
2014-Nov-17 06:33N 55°48' W 006°44'138 9.1
2014-Nov-16 15:20N 58°04' W 006°05'2210.3
2014-Nov-16 13:11N 58°21' W 005°36'610.1
2014-Nov-16 12:33N 58°25' W 005°28'39 9.6
2014-Nov-16 08:27N 58°41' W 004°18'9 9.7
2014-Nov-16 07:33N 58°42' W 004°02'10 9.8
2014-Nov-16 06:33N 58°42' W 003°43'10 9.7
2014-Nov-16 05:34N 58°42' W 003°24'8 8.4
2014-Nov-16 04:33N 58°43' W 003°08'4 4.4
2014-Nov-16 03:33N 58°43' W 002°60'6 5.7
2014-Nov-16 02:33N 58°42' W 002°49'  
Track history (hours):
 
Tides and Currents Weather Stations Pressure Air Temp Water Temp Dewpoint Dewpoint Depression Visibility Wind Speed Wind Dir Waves Ship Positions

Kaami

Last reported at 2014-Nov-25 20:28 UTC. Time now 2014-Nov-25 20:45 UTC.
Position N 51°10' E 003°47'.

Length 90 m; draft 5.7 m.

Type: Cargo ship. MMSI: 308542000.

Date/timePositionNaut miles runAvg speedWind from/ knotsBaromVisibWave heightAir tempDewpointWater temp
2014-Nov-25 20:28N 51°10' E 003°47'0 0.0
2014-Nov-25 19:31N 51°10' E 003°47'0 0.0
2014-Nov-25 18:28N 51°10' E 003°47'0 0.0
2014-Nov-25 17:31N 51°10' E 003°47'0 0.0
2014-Nov-25 16:31N 51°10' E 003°47'0 0.0
2014-Nov-25 15:28N 51°10' E 003°47'2 1.8
2014-Nov-25 14:33N 51°11' E 003°48'7 6.5
2014-Nov-25 13:34N 51°18' E 003°50'3 2.6
2014-Nov-25 12:34N 51°20' E 003°49'4 3.9
2014-Nov-25 11:33N 51°22' E 003°44'6 6.1
2014-Nov-25 10:33N 51°25' E 003°35'8 7.9
2014-Nov-25 09:33N 51°24' E 003°23'8 8.0
2014-Nov-25 08:33N 51°24' E 003°10'8 7.7
2014-Nov-25 07:33N 51°23' E 002°57'8 8.1
2014-Nov-25 06:30N 51°22' E 002°44'5 5.5
2014-Nov-25 05:33N 51°22' E 002°36'9 8.6
2014-Nov-25 04:32N 51°19' E 002°22'17 8.8
2014-Nov-25 02:33N 51°11' E 001°58'9 8.7
2014-Nov-25 01:34N 51°06' E 001°47'9 8.9
2014-Nov-25 00:31N 50°59' E 001°37'286 5.7
2014-Nov-22 22:33N 52°05' W 005°51'9 9.0
2014-Nov-22 21:33N 52°14' W 005°47'9 8.4
2014-Nov-22 20:32N 52°22' W 005°46'78 8.6
2014-Nov-22 11:32N 53°39' W 006°04'9 8.9
2014-Nov-22 10:33N 53°44' W 006°16'2 0.1
2014-Nov-21 09:28N 53°43' W 006°19'5 5.6
2014-Nov-21 08:33N 53°43' W 006°10'5 4.6
2014-Nov-21 07:33N 53°43' W 006°02'9610.7
2014-Nov-20 22:32N 53°32' W 003°21'9 9.7
2014-Nov-20 21:33N 53°30' W 003°05'3 3.4
2014-Nov-20 20:33N 53°27' W 003°01'0 0.2
2014-Nov-20 19:33N 53°28' W 003°01'0 0.0
2014-Nov-20 18:33N 53°28' W 003°01'0 0.0
2014-Nov-20 17:21N 53°28' W 003°01'0 0.0
2014-Nov-20 16:33N 53°28' W 003°01'0 0.0
2014-Nov-20 15:33N 53°28' W 003°01'0 0.0
2014-Nov-20 14:33N 53°28' W 003°01'0 0.0
2014-Nov-20 13:33N 53°28' W 003°01'0 0.0
2014-Nov-20 12:27N 53°28' W 003°01'0 0.0
2014-Nov-20 11:33N 53°28' W 003°01'0 0.0
2014-Nov-20 10:33N 53°28' W 003°01'0 0.0
2014-Nov-20 09:33N 53°28' W 003°01'0 0.0
2014-Nov-20 08:33N 53°28' W 003°01'0 0.0
2014-Nov-20 06:33N 53°28' W 003°01'0 0.0
2014-Nov-20 05:32N 53°28' W 003°01'0 0.0
2014-Nov-20 04:32N 53°28' W 003°01'0 0.0
2014-Nov-20 02:32N 53°28' W 003°01'0 0.0
2014-Nov-20 01:08N 53°28' W 003°01'0 0.0
2014-Nov-20 00:26N 53°28' W 003°01'0 0.0
2014-Nov-19 23:26N 53°28' W 003°01'0 0.0
2014-Nov-19 22:26N 53°28' W 003°01'0 0.0
2014-Nov-19 21:32N 53°28' W 003°01'0 0.0
2014-Nov-19 20:20N 53°28' W 003°01'0 0.0
2014-Nov-19 19:32N 53°28' W 003°01'0 0.0
2014-Nov-19 18:26N 53°28' W 003°01'0 0.0
2014-Nov-19 16:32N 53°28' W 003°01'0 0.0
2014-Nov-19 15:32N 53°28' W 003°01'0 0.0
2014-Nov-19 13:32N 53°28' W 003°01'0 0.0
2014-Nov-19 12:24N 53°28' W 003°01'1 0.6
2014-Nov-19 11:33N 53°27' W 003°01'1 1.0
2014-Nov-19 10:33N 53°28' W 003°02'8 7.6
2014-Nov-19 09:33N 53°31' W 003°14'6 0.9
2014-Nov-19 03:26N 53°29' W 003°22'0 0.0
2014-Nov-19 02:32N 53°28' W 003°22'0 0.0
2014-Nov-19 01:26N 53°29' W 003°22'0 0.0
2014-Nov-19 00:32N 53°29' W 003°22'0 0.0
2014-Nov-18 23:32N 53°29' W 003°22'0 0.0
2014-Nov-18 22:32N 53°29' W 003°22'0 0.0
2014-Nov-18 21:26N 53°29' W 003°22'0 0.0
2014-Nov-18 20:32N 53°28' W 003°22'0 0.1
2014-Nov-18 19:08N 53°28' W 003°22'0 0.0
2014-Nov-18 18:26N 53°28' W 003°22'0 0.0
2014-Nov-18 16:20N 53°28' W 003°22'0 0.1
2014-Nov-18 15:20N 53°28' W 003°22'0 0.0
2014-Nov-18 14:32N 53°28' W 003°22'0 0.0
2014-Nov-18 13:31N 53°29' W 003°22'0 0.0
2014-Nov-18 12:19N 53°29' W 003°22'0 0.0
2014-Nov-18 11:31N 53°29' W 003°22'0 0.0
2014-Nov-18 10:31N 53°29' W 003°22'0 0.0
2014-Nov-18 09:31N 53°28' W 003°22'0 0.0
2014-Nov-18 08:31N 53°28' W 003°22'0 0.0
2014-Nov-18 07:31N 53°28' W 003°22'4 3.5
2014-Nov-18 06:24N 53°30' W 003°28'75 6.9
2014-Nov-17 19:29N 54°19' W 005°06'7 7.8
2014-Nov-17 18:33N 54°25' W 005°11'7 7.3
2014-Nov-17 17:33N 54°32' W 005°16'8 7.9
2014-Nov-17 16:33N 54°39' W 005°21'8 8.2
2014-Nov-17 15:33N 54°47' W 005°27'8 8.1
2014-Nov-17 14:34N 54°53' W 005°35'9 8.4
2014-Nov-17 13:29N 55°01' W 005°44'17 8.5
2014-Nov-17 11:32N 55°15' W 006°00'8 7.9
2014-Nov-17 10:32N 55°21' W 006°09'8 8.4
2014-Nov-17 09:32N 55°26' W 006°20'9 9.1
2014-Nov-17 08:33N 55°34' W 006°28'9 8.3
2014-Nov-17 07:32N 55°41' W 006°37'8 8.5
2014-Nov-17 06:33N 55°48' W 006°44'138 9.1
2014-Nov-16 15:20N 58°04' W 006°05'2210.3
2014-Nov-16 13:11N 58°21' W 005°36'610.1
2014-Nov-16 12:33N 58°25' W 005°28'39 9.6
2014-Nov-16 08:27N 58°41' W 004°18'9 9.7
2014-Nov-16 07:33N 58°42' W 004°02'10 9.8
2014-Nov-16 06:33N 58°42' W 003°43'10 9.7
2014-Nov-16 05:34N 58°42' W 003°24'8 8.4
2014-Nov-16 04:33N 58°43' W 003°08'4 4.4
2014-Nov-16 03:33N 58°43' W 002°60'6 5.7
2014-Nov-16 02:33N 58°42' W 002°49'  

Dump ship's entire track history